sensor_id;sensor_type;location;lat;lon;timestamp;P1;durP1;ratioP1;P2;durP2;ratioP2
60426;SDS011;46274;47.168;27.604;2023-09-19T00:06:03;6.03;;;3.67;;
60426;SDS011;46274;47.168;27.604;2023-09-19T00:12:13;10.43;;;3.77;;
60426;SDS011;46274;47.168;27.604;2023-09-19T00:18:16;6.67;;;4.13;;
60426;SDS011;46274;47.168;27.604;2023-09-19T00:24:24;10.63;;;4.87;;
60426;SDS011;46274;47.168;27.604;2023-09-19T00:30:29;7.17;;;4.80;;
60426;SDS011;46274;47.168;27.604;2023-09-19T00:36:31;13.57;;;5.50;;
60426;SDS011;46274;47.168;27.604;2023-09-19T00:42:40;8.23;;;4.50;;
60426;SDS011;46274;47.168;27.604;2023-09-19T00:48:44;7.23;;;3.73;;
60426;SDS011;46274;47.168;27.604;2023-09-19T00:54:49;8.60;;;4.57;;
60426;SDS011;46274;47.168;27.604;2023-09-19T01:00:59;8.70;;;4.40;;
60426;SDS011;46274;47.168;27.604;2023-09-19T01:07:02;9.67;;;4.23;;
60426;SDS011;46274;47.168;27.604;2023-09-19T01:13:09;8.40;;;4.10;;
60426;SDS011;46274;47.168;27.604;2023-09-19T01:32:13;11.73;;;4.23;;
60426;SDS011;46274;47.168;27.604;2023-09-19T01:38:21;6.73;;;4.30;;
60426;SDS011;46274;47.168;27.604;2023-09-19T01:44:25;7.77;;;4.47;;
60426;SDS011;46274;47.168;27.604;2023-09-19T01:57:27;10.93;;;5.83;;
60426;SDS011;46274;47.168;27.604;2023-09-19T02:03:34;11.43;;;5.27;;
60426;SDS011;46274;47.168;27.604;2023-09-19T02:09:48;9.00;;;5.53;;
60426;SDS011;46274;47.168;27.604;2023-09-19T02:15:53;9.30;;;4.90;;
60426;SDS011;46274;47.168;27.604;2023-09-19T02:21:58;8.07;;;4.70;;
60426;SDS011;46274;47.168;27.604;2023-09-19T02:28:02;12.23;;;5.70;;
60426;SDS011;46274;47.168;27.604;2023-09-19T02:34:10;9.17;;;4.73;;
60426;SDS011;46274;47.168;27.604;2023-09-19T02:40:14;9.67;;;5.40;;
60426;SDS011;46274;47.168;27.604;2023-09-19T02:46:31;12.23;;;5.17;;
60426;SDS011;46274;47.168;27.604;2023-09-19T02:52:33;6.07;;;4.00;;
60426;SDS011;46274;47.168;27.604;2023-09-19T02:58:41;8.57;;;4.97;;
60426;SDS011;46274;47.168;27.604;2023-09-19T03:04:50;10.10;;;4.80;;
60426;SDS011;46274;47.168;27.604;2023-09-19T03:10:54;14.00;;;6.17;;
60426;SDS011;46274;47.168;27.604;2023-09-19T03:16:59;11.40;;;5.97;;
60426;SDS011;46274;47.168;27.604;2023-09-19T03:23:03;7.80;;;4.50;;
60426;SDS011;46274;47.168;27.604;2023-09-19T03:29:07;9.73;;;4.50;;
60426;SDS011;46274;47.168;27.604;2023-09-19T03:35:12;9.07;;;4.73;;
60426;SDS011;46274;47.168;27.604;2023-09-19T03:41:22;7.37;;;4.53;;
60426;SDS011;46274;47.168;27.604;2023-09-19T03:47:25;8.07;;;4.80;;
60426;SDS011;46274;47.168;27.604;2023-09-19T03:53:27;9.03;;;4.73;;
60426;SDS011;46274;47.168;27.604;2023-09-19T03:59:30;11.23;;;4.63;;
60426;SDS011;46274;47.168;27.604;2023-09-19T04:05:32;13.77;;;7.27;;
60426;SDS011;46274;47.168;27.604;2023-09-19T04:11:35;13.40;;;6.03;;
60426;SDS011;46274;47.168;27.604;2023-09-19T04:17:46;22.17;;;7.63;;
60426;SDS011;46274;47.168;27.604;2023-09-19T04:23:54;14.63;;;6.10;;
60426;SDS011;46274;47.168;27.604;2023-09-19T04:30:03;14.37;;;6.10;;
60426;SDS011;46274;47.168;27.604;2023-09-19T04:36:21;17.13;;;6.70;;
60426;SDS011;46274;47.168;27.604;2023-09-19T04:42:35;14.87;;;6.40;;
60426;SDS011;46274;47.168;27.604;2023-09-19T04:48:38;23.47;;;9.83;;
60426;SDS011;46274;47.168;27.604;2023-09-19T04:54:48;18.20;;;6.53;;
60426;SDS011;46274;47.168;27.604;2023-09-19T05:00:57;15.93;;;6.13;;
60426;SDS011;46274;47.168;27.604;2023-09-19T05:06:59;10.43;;;6.00;;
60426;SDS011;46274;47.168;27.604;2023-09-19T05:13:05;13.70;;;7.60;;
60426;SDS011;46274;47.168;27.604;2023-09-19T05:19:18;12.10;;;7.07;;
60426;SDS011;46274;47.168;27.604;2023-09-19T05:25:24;13.37;;;6.83;;
60426;SDS011;46274;47.168;27.604;2023-09-19T05:31:26;17.67;;;6.27;;
60426;SDS011;46274;47.168;27.604;2023-09-19T05:50:35;21.87;;;9.17;;
60426;SDS011;46274;47.168;27.604;2023-09-19T06:03:39;11.13;;;6.73;;
60426;SDS011;46274;47.168;27.604;2023-09-19T06:23:49;15.67;;;5.63;;
60426;SDS011;46274;47.168;27.604;2023-09-19T06:29:52;12.50;;;4.80;;
60426;SDS011;46274;47.168;27.604;2023-09-19T06:36:08;12.67;;;5.70;;
60426;SDS011;46274;47.168;27.604;2023-09-19T06:42:18;15.50;;;6.00;;
60426;SDS011;46274;47.168;27.604;2023-09-19T07:23:32;15.40;;;4.83;;
60426;SDS011;46274;47.168;27.604;2023-09-19T07:29:37;7.40;;;4.27;;
60426;SDS011;46274;47.168;27.604;2023-09-19T07:35:55;16.20;;;5.20;;
60426;SDS011;46274;47.168;27.604;2023-09-19T07:42:15;8.90;;;5.90;;
60426;SDS011;46274;47.168;27.604;2023-09-19T07:48:28;10.73;;;5.90;;
60426;SDS011;46274;47.168;27.604;2023-09-19T07:54:31;11.98;;;5.68;;
60426;SDS011;46274;47.168;27.604;2023-09-19T08:00:50;10.00;;;5.72;;
60426;SDS011;46274;47.168;27.604;2023-09-19T08:07:04;16.92;;;6.25;;
60426;SDS011;46274;47.168;27.604;2023-09-19T08:13:16;8.50;;;5.05;;
60426;SDS011;46274;47.168;27.604;2023-09-19T08:19:21;10.10;;;4.70;;
60426;SDS011;46274;47.168;27.604;2023-09-19T08:25:41;22.05;;;5.05;;
60426;SDS011;46274;47.168;27.604;2023-09-19T08:31:54;13.55;;;5.18;;
60426;SDS011;46274;47.168;27.604;2023-09-19T08:38:00;14.38;;;7.20;;
60426;SDS011;46274;47.168;27.604;2023-09-19T08:44:06;10.38;;;6.45;;
60426;SDS011;46274;47.168;27.604;2023-09-19T09:16:30;10.13;;;5.38;;
60426;SDS011;46274;47.168;27.604;2023-09-19T09:22:39;9.93;;;5.07;;
60426;SDS011;46274;47.168;27.604;2023-09-19T09:28:56;5.28;;;3.75;;
60426;SDS011;46274;47.168;27.604;2023-09-19T09:35:01;13.90;;;4.72;;
60426;SDS011;46274;47.168;27.604;2023-09-19T09:41:21;9.15;;;6.88;;
60426;SDS011;46274;47.168;27.604;2023-09-19T09:48:00;10.77;;;5.18;;
60426;SDS011;46274;47.168;27.604;2023-09-19T09:54:14;22.88;;;4.93;;
60426;SDS011;46274;47.168;27.604;2023-09-19T10:00:59;6.75;;;3.63;;
60426;SDS011;46274;47.168;27.604;2023-09-19T10:07:24;13.02;;;5.00;;
60426;SDS011;46274;47.168;27.604;2023-09-19T10:13:45;9.15;;;4.78;;
60426;SDS011;46274;47.168;27.604;2023-09-19T10:19:55;14.23;;;5.57;;
60426;SDS011;46274;47.168;27.604;2023-09-19T10:26:43;11.13;;;5.43;;
60426;SDS011;46274;47.168;27.604;2023-09-19T10:33:02;8.27;;;4.60;;
60426;SDS011;46274;47.168;27.604;2023-09-19T10:39:15;15.18;;;5.07;;
60426;SDS011;46274;47.168;27.604;2023-09-19T10:45:54;9.15;;;4.90;;
60426;SDS011;46274;47.168;27.604;2023-09-19T10:52:02;13.82;;;5.95;;
60426;SDS011;46274;47.168;27.604;2023-09-19T10:58:16;12.15;;;4.53;;
60426;SDS011;46274;47.168;27.604;2023-09-19T11:05:07;8.02;;;4.72;;
60426;SDS011;46274;47.168;27.604;2023-09-19T11:24:29;16.83;;;5.72;;
60426;SDS011;46274;47.168;27.604;2023-09-19T11:30:35;19.23;;;5.40;;
60426;SDS011;46274;47.168;27.604;2023-09-19T11:36:40;11.45;;;5.53;;
60426;SDS011;46274;47.168;27.604;2023-09-19T11:42:52;7.50;;;5.32;;
60426;SDS011;46274;47.168;27.604;2023-09-19T11:49:10;14.63;;;5.70;;
60426;SDS011;46274;47.168;27.604;2023-09-19T11:55:22;8.10;;;4.55;;
60426;SDS011;46274;47.168;27.604;2023-09-19T12:01:56;13.77;;;4.65;;
60426;SDS011;46274;47.168;27.604;2023-09-19T12:08:04;10.63;;;5.65;;
60426;SDS011;46274;47.168;27.604;2023-09-19T12:14:10;12.30;;;6.25;;
60426;SDS011;46274;47.168;27.604;2023-09-19T12:20:14;14.43;;;7.38;;
60426;SDS011;46274;47.168;27.604;2023-09-19T12:26:19;15.68;;;7.47;;
60426;SDS011;46274;47.168;27.604;2023-09-19T12:32:37;13.48;;;6.43;;
60426;SDS011;46274;47.168;27.604;2023-09-19T12:38:56;11.77;;;6.93;;
60426;SDS011;46274;47.168;27.604;2023-09-19T13:05:51;12.13;;;6.83;;
60426;SDS011;46274;47.168;27.604;2023-09-19T13:12:02;11.50;;;6.43;;
60426;SDS011;46274;47.168;27.604;2023-09-19T13:24:34;12.30;;;6.55;;
60426;SDS011;46274;47.168;27.604;2023-09-19T13:30:55;14.15;;;6.72;;
60426;SDS011;46274;47.168;27.604;2023-09-19T13:36:57;10.47;;;6.33;;
60426;SDS011;46274;47.168;27.604;2023-09-19T13:43:17;14.48;;;7.45;;
60426;SDS011;46274;47.168;27.604;2023-09-19T13:49:24;7.93;;;5.63;;
60426;SDS011;46274;47.168;27.604;2023-09-19T13:55:34;10.63;;;7.13;;
60426;SDS011;46274;47.168;27.604;2023-09-19T14:01:36;11.93;;;7.40;;
60426;SDS011;46274;47.168;27.604;2023-09-19T14:07:41;12.90;;;6.93;;
60426;SDS011;46274;47.168;27.604;2023-09-19T14:13:46;17.40;;;7.83;;
60426;SDS011;46274;47.168;27.604;2023-09-19T14:19:58;12.13;;;7.65;;
60426;SDS011;46274;47.168;27.604;2023-09-19T14:32:19;20.33;;;8.57;;
60426;SDS011;46274;47.168;27.604;2023-09-19T14:38:29;15.77;;;6.47;;
60426;SDS011;46274;47.168;27.604;2023-09-19T14:44:50;11.40;;;6.90;;
60426;SDS011;46274;47.168;27.604;2023-09-19T14:51:09;11.53;;;7.60;;
60426;SDS011;46274;47.168;27.604;2023-09-19T14:57:25;9.47;;;5.73;;
60426;SDS011;46274;47.168;27.604;2023-09-19T15:03:54;10.87;;;7.10;;
60426;SDS011;46274;47.168;27.604;2023-09-19T15:10:02;13.53;;;7.33;;
